x

Portlock Bank- 76nm Ene Of Kodiak, Ak (46080) Wave Buoy

1:50pm - Sat 6th Feb 2016 All times are AKST. -9 hours from GMT.

  • Sig Wave height 10.2ft
  • Peak Period 11s
  • Average Period 8s
  • Wind
    9mph, 11mph gusts
  • Sea Temp 45°f
  • Air Temp 42°f
  • Sea Pressure 1007.3mb
  • Portlock Bank- 76nm Ene Of Kodiak, Ak
  • Portlock Bank- 76nm Ene Of Kodiak, Ak

More Historic Weather Station data

Upgrade to MSW Pro to gain access to the past 30 days of data for over 8000 Wavebouys and Weather Stations around the globe.

Join Pro

Comparision Forecast

View Surf forecast
   
Sat 02/06 1:50pm 10ft 11s 8s 9 11 mph 1007.3mb 45f 42f
12:50pm  -   -   -  11 13 mph 1006.7mb 44f 41f
11:50am  -   -   -  11 13 mph 1006.1mb 44f 41f
10:50am 13ft 11s 8s 11 16 mph 1005.2mb 44f 41f
9:50am  -   -   -  11 13 mph 1004mb 44f 40f
8:50am  -   -   -  13
mph
- - 41f
7:50am 13ft 11s 8s 16 20 mph 1001.5mb 44f 40f
6:50am 12ft 10s 7s 20 25 mph 1000.2mb 44f 40f
5:50am 15ft 11s 8s 22 27 mph 998.9mb 44f 40f
4:50am 15.5ft 11s 8s 18 25 mph 997.4mb 44f 40f
3:50am 12.5ft 11s 7s 20 25 mph 996.1mb 44f 40f
2:50am 12ft 12s 7s 22 27 mph 994.7mb 44f 41f
1:50am  -   -   -  25 31 mph 993.5mb 44f 42f
12:50am  -   -   -  27 31 mph - - 41f
Fri 02/05 11:50pm  -   -   -  27 34 mph 992.8mb 44f 39f
10:50pm 11ft 11s 6s 27 31 mph 992.9mb 44f 38f
9:50pm  -   -   -  25 31 mph 992.8mb 44f 40f
8:50pm  -   -   -  22 29 mph 993mb 44f 40f
7:50pm  -   -   -  25 29 mph 992.7mb 44f 40f
6:50pm  -   -   -  20 25 mph 992.4mb 44f 40f
5:50pm  -   -   -  22 25 mph 992.1mb 44f 40f
4:50pm  -   -   -  22 29 mph 991.6mb 44f 41f
3:50pm  -   -   -  22 27 mph 991.4mb 44f 42f
2:50pm  -   -   -  20 25 mph 991.1mb 44f 41f
1:50pm  -   -   -  20 27 mph 990.5mb 44f 42f
12:50pm  -   -   -  22 27 mph 989.9mb 44f 42f
11:50am 15ft 11s 7s 20 25 mph 989.2mb 44f 42f
10:50am  -   -   -  22 27 mph 988.3mb 44f 42f
9:50am 14ft 11s 7s 25 29 mph 987.2mb 44f 42f
8:50am 13.5ft 11s 7s 25 29 mph 986.1mb 44f 42f
7:50am  -   -   -  22 31 mph 985.1mb 44f 42f
6:50am 17ft 11s 8s 25 29 mph 984.3mb 44f 41f
5:50am 14ft 11s 7s 20 31 mph 983.8mb 44f 40f
4:50am 17ft 11s 8s 20 22 mph 982.9mb 44f 41f
3:50am 15.5ft 11s 8s 22 27 mph 982.1mb 44f 42f
2:50am  -   -   -  25 29 mph 981.3mb 44f 42f
1:50am  -   -   -  27 31 mph 980.4mb 44f 42f
12:50am  -   -   -  29 34 mph 979.3mb 44f 42f
Thu 02/04 11:50pm  -   -   -  29 34 mph 978.4mb 44f 43f
10:50pm  -   -   -  29 36 mph 977.2mb 44f 42f
9:50pm  -   -   -  27 31 mph 976.3mb 44f 42f
8:50pm  -   -   -  29 34 mph 975.3mb 44f 41f
7:50pm  -   -   -  27 34 mph 974.4mb 44f 42f
6:50pm  -   -   -  27 38 mph 973.4mb 44f 42f
5:50pm 14.5ft 11s 7s 27 40 mph 972.3mb 44f 42f
4:50pm 15ft 11s 7s 29 36 mph 970.8mb 44f 42f
3:50pm 14ft 10s 7s 31 40 mph 969mb 44f 41f
2:50pm 15.5ft 11s 8s 25 34 mph 967.5mb 44f 42f
1:50pm 16.5ft 11s 8s 13 18 mph 966.5mb 44f 44f
12:50pm  -   -   -  13 18 mph 965.9mb 44f 44f
11:50am 15ft 11s 8s 18 22 mph 965.4mb 44f 44f
10:50am 16.5ft 11s 7s 18 22 mph 965.1mb 44f 43f
9:50am 16.5ft 11s 7s 29 36 mph 965.2mb 44f 42f
8:50am 17.5ft 9s 7s 34 40 mph 966.2mb 44f 42f
7:50am 17.5ft 10s 7s 36 45 mph 967.7mb 44f 42f
6:50am 15.5ft 11s 7s 34 45 mph 969.7mb 44f 42f
5:50am 15ft 11s 7s 31 38 mph 971.6mb 44f 42f
4:50am 14.5ft 11s 7s 29 36 mph 973.2mb 44f 42f
3:50am 14ft 11s 7s 29 40 mph 974.9mb 44f 43f
2:50am 14.5ft 10s 7s 22 27 mph 976.1mb 44f 42f
1:50am  -   -   -  25 29 mph 976.9mb 44f 43f
12:50am  -   -   -  25 29 mph 977.3mb 44f 43f
Wed 02/03 11:50pm  -   -   -  22 29 mph 977.4mb 44f 42f
10:50pm  -   -   -  25 29 mph 977.3mb 44f 43f
9:50pm  -   -   -  25 31 mph 977.4mb 44f 42f
8:50pm  -   -   -  25 34 mph 977.1mb 44f 42f
7:50pm  -   -   -  27
mph
976.8mb 44f 43f
6:50pm  -   -   -  29 34 mph 976.7mb 44f 43f
5:50pm  -   -   -  31 38 mph 976.9mb 44f 43f
4:50pm  -   -   -  29 36 mph 977.4mb 44f 42f
3:50pm 17.5ft 10s 8s 31 40 mph 977.6mb 44f 43f
2:50pm 18ft 10s 8s 27 38 mph 978.4mb 44f 42f
1:50pm 20ft 15s 8s 29 36 mph 978.9mb 44f 43f
12:50pm 20ft 15s 9s 31 38 mph 979.4mb 44f 43f
11:50am 20ft 10s 8s 31 38 mph 980mb 44f 44f
10:50am 20.5ft 11s 9s 34 43 mph 980.5mb 44f 44f
9:50am  -   -   -  31
mph
981.3mb - 44f
8:50am 20.5ft 10s 8s 31 36 mph 981.7mb 44f 43f
7:50am 20.5ft 13s 8s 29 36 mph 982.6mb 44f 43f
6:50am  -   -   -  31
mph
983.5mb 44f 43f
5:50am  -   -   -  34 40 mph 984.3mb 44f 42f
4:50am 21ft 11s 8s 36 45 mph 985.1mb 44f 42f
3:50am  -   -   -  36 45 mph 986.1mb 44f 42f
2:50am  -   -   -  38
mph
- - 42f
1:50am 16.5ft 8s 7s 36 45 mph 988mb 44f 42f
12:50am  -   -   -  36 49 mph 988.8mb 44f 43f
Tue 02/02 11:50pm  -   -   -  31 40 mph 989.9mb 45f 43f